createdAt,value
2024-03-22T00:00:07.526Z,100.00
2024-03-22T00:05:14.904Z,100.00
2024-03-22T00:10:20.680Z,100.00
2024-03-22T00:15:26.274Z,100.00
2024-03-22T00:20:35.130Z,100.00
2024-03-22T00:25:39.123Z,100.00
2024-03-22T00:30:45.192Z,100.00
2024-03-22T00:35:50.762Z,100.00
2024-03-22T00:40:56.631Z,100.00
2024-03-22T00:46:04.034Z,100.00
2024-03-22T00:51:09.702Z,100.00
2024-03-22T00:56:15.363Z,100.00
2024-03-22T01:01:21.041Z,100.00
2024-03-22T01:06:28.343Z,100.00
2024-03-22T01:11:33.920Z,100.00
2024-03-22T01:16:41.112Z,100.00
2024-03-22T01:21:46.677Z,100.00
2024-03-22T01:26:52.241Z,100.00
2024-03-22T01:31:57.818Z,100.00
2024-03-22T01:37:04.119Z,100.00
2024-03-22T01:42:09.760Z,100.00
2024-03-22T01:47:15.536Z,100.00
2024-03-22T01:52:21.179Z,100.00
2024-03-22T01:57:26.956Z,99.95
2024-03-22T02:02:32.636Z,99.69
2024-03-22T02:07:38.386Z,99.64
2024-03-22T02:12:44.162Z,99.55
2024-03-22T02:17:49.827Z,99.45
2024-03-22T02:22:55.811Z,99.26
2024-03-22T02:28:01.479Z,99.29
2024-03-22T02:33:07.554Z,99.12
2024-03-22T02:38:13.221Z,98.89
2024-03-22T02:43:20.374Z,98.84
2024-03-22T02:48:26.500Z,98.84
2024-03-22T02:53:32.158Z,98.75
2024-03-22T02:58:37.953Z,98.69
2024-03-22T03:03:43.734Z,98.65
2024-03-22T03:08:49.573Z,98.79
2024-03-22T03:13:55.389Z,98.74
2024-03-22T03:19:02.740Z,98.55
2024-03-22T03:24:10.164Z,98.51
2024-03-22T03:29:16.029Z,98.48
2024-03-22T03:34:22.000Z,98.38
2024-03-22T03:39:27.683Z,98.21
2024-03-22T03:44:33.339Z,98.09
2024-03-22T03:49:39.005Z,98.09
2024-03-22T03:54:44.692Z,98.02
2024-03-22T03:59:50.441Z,97.98
2024-03-22T04:04:56.515Z,98.00
2024-03-22T04:10:02.190Z,98.08
2024-03-22T04:15:09.002Z,98.21
2024-03-22T04:20:15.129Z,98.25
2024-03-22T04:25:21.234Z,98.30
2024-03-22T04:30:27.315Z,98.35
2024-03-22T04:35:32.984Z,98.39
2024-03-22T04:40:38.542Z,98.37
2024-03-22T04:45:45.806Z,98.18
2024-03-22T04:50:52.753Z,98.32
2024-03-22T04:55:58.338Z,98.38
2024-03-22T05:01:03.976Z,98.34
2024-03-22T05:06:09.747Z,98.24
2024-03-22T05:11:15.474Z,98.31
2024-03-22T05:16:21.388Z,98.37
2024-03-22T05:21:27.056Z,98.17
2024-03-22T05:26:34.261Z,98.04
2024-03-22T05:31:42.894Z,97.88
2024-03-22T05:36:49.057Z,97.71
2024-03-22T05:41:55.475Z,97.57
2024-03-22T05:47:01.636Z,97.26
2024-03-22T05:52:07.495Z,97.14
2024-03-22T05:57:13.691Z,96.75
2024-03-22T06:02:19.504Z,96.31
2024-03-22T06:07:25.133Z,96.06
2024-03-22T06:12:30.794Z,95.18
2024-03-22T06:17:36.418Z,94.75
2024-03-22T06:22:42.198Z,94.57
2024-03-22T06:27:47.802Z,93.80
2024-03-22T06:32:53.368Z,93.50
2024-03-22T06:37:58.934Z,93.09
2024-03-22T06:43:04.701Z,92.79
2024-03-22T06:48:10.474Z,92.66
2024-03-22T06:53:16.030Z,92.04
2024-03-22T06:58:21.700Z,91.21
2024-03-22T07:03:27.275Z,90.38
2024-03-22T07:08:33.236Z,89.99
2024-03-22T07:13:38.812Z,89.18
2024-03-22T07:18:44.801Z,88.06
2024-03-22T07:23:50.472Z,88.06
2024-03-22T07:28:56.214Z,87.52
2024-03-22T07:34:01.882Z,86.81
2024-03-22T07:39:10.978Z,86.29
2024-03-22T07:44:18.544Z,85.42
2024-03-22T07:49:24.108Z,84.49
2024-03-22T07:54:29.662Z,84.69
2024-03-22T07:59:35.953Z,84.02
2024-03-22T08:04:41.716Z,83.68
2024-03-22T08:09:47.380Z,83.45
2024-03-22T08:14:53.490Z,83.29
2024-03-22T08:19:59.333Z,83.60
2024-03-22T08:25:05.680Z,83.78
2024-03-22T08:30:12.732Z,84.13
2024-03-22T08:35:18.489Z,84.45
2024-03-22T08:40:24.479Z,83.84
2024-03-22T08:45:30.234Z,84.42
2024-03-22T08:50:36.307Z,84.82
2024-03-22T08:55:49.855Z,85.10
2024-03-22T09:00:57.475Z,85.08
2024-03-22T09:06:08.837Z,84.15
2024-03-22T09:11:11.323Z,82.46
2024-03-22T09:16:17.273Z,79.81
2024-03-22T09:21:23.210Z,78.71
2024-03-22T09:26:28.893Z,76.01
2024-03-22T09:31:34.702Z,75.07
2024-03-22T09:36:40.319Z,75.19
2024-03-22T09:41:49.719Z,74.43
2024-03-22T09:46:54.933Z,72.63
2024-03-22T09:52:00.932Z,71.95
2024-03-22T09:57:08.539Z,71.12
2024-03-22T10:02:15.298Z,70.94
2024-03-22T10:07:21.038Z,70.21
2024-03-22T10:12:27.172Z,70.48
2024-03-22T10:17:32.957Z,69.94
2024-03-22T10:22:38.707Z,69.00
2024-03-22T10:27:44.409Z,68.32
2024-03-22T10:32:54.077Z,67.76
2024-03-22T10:37:59.716Z,67.91
2024-03-22T10:43:05.767Z,67.19
2024-03-22T10:48:12.805Z,67.40
2024-03-22T10:53:25.731Z,66.38
2024-03-22T10:58:31.986Z,66.37
2024-03-22T11:03:38.258Z,65.81
2024-03-22T11:08:43.931Z,64.59
2024-03-22T11:13:50.520Z,62.32
2024-03-22T11:18:56.828Z,63.33
2024-03-22T11:24:05.896Z,62.08
2024-03-22T11:29:11.726Z,60.45
2024-03-22T11:34:17.715Z,59.76
2024-03-22T11:39:24.713Z,59.22
2024-03-22T11:44:31.028Z,58.23
2024-03-22T11:49:37.151Z,57.46
2024-03-22T11:54:42.923Z,58.16
2024-03-22T12:00:02.566Z,59.16
2024-03-22T12:04:55.980Z,60.31
2024-03-22T12:10:01.661Z,61.27
2024-03-22T12:15:08.184Z,62.54
2024-03-22T12:20:15.399Z,64.10
2024-03-22T12:25:21.018Z,64.73
2024-03-22T12:30:27.527Z,65.25
2024-03-22T12:35:33.998Z,64.34
2024-03-22T12:40:40.631Z,63.49
2024-03-22T12:45:46.348Z,61.26
2024-03-22T12:50:52.318Z,60.89
2024-03-22T12:55:57.914Z,59.82
2024-03-22T13:01:04.486Z,59.02
2024-03-22T13:06:10.248Z,58.33
2024-03-22T13:11:16.016Z,58.22
2024-03-22T13:16:21.582Z,59.53
2024-03-22T13:21:28.389Z,59.19
2024-03-22T13:26:34.156Z,59.14
2024-03-22T13:31:43.257Z,59.45
2024-03-22T13:36:48.253Z,61.13
2024-03-22T13:41:53.926Z,62.51
2024-03-22T13:46:59.473Z,64.28
2024-03-22T13:52:09.594Z,65.63
2024-03-22T13:57:15.637Z,67.46
2024-03-22T14:02:21.515Z,68.69
2024-03-22T14:07:28.708Z,69.72
2024-03-22T14:12:34.388Z,71.13
2024-03-22T14:17:40.059Z,72.10
2024-03-22T14:22:45.882Z,72.90
2024-03-22T14:27:53.449Z,73.09
2024-03-22T14:32:59.294Z,73.56
2024-03-22T14:38:05.223Z,73.98
2024-03-22T14:43:12.707Z,74.47
2024-03-22T14:48:18.383Z,75.11
2024-03-22T14:53:24.617Z,75.99
2024-03-22T14:58:31.833Z,76.98
2024-03-22T15:03:37.905Z,78.33
2024-03-22T15:08:43.572Z,79.84
2024-03-22T15:13:49.661Z,80.78
2024-03-22T15:18:55.305Z,81.27
2024-03-22T15:24:00.997Z,81.73
2024-03-22T15:29:06.862Z,82.25
2024-03-22T15:34:12.644Z,82.79
2024-03-22T15:39:19.491Z,82.87
2024-03-22T15:44:27.436Z,83.16
2024-03-22T15:49:33.008Z,83.41
2024-03-22T15:54:39.072Z,84.00
2024-03-22T15:59:45.610Z,84.61
2024-03-22T16:04:52.867Z,84.90
2024-03-22T16:09:58.646Z,85.61
2024-03-22T16:15:06.063Z,86.18
2024-03-22T16:20:13.219Z,86.90
2024-03-22T16:25:18.861Z,87.99
2024-03-22T16:30:24.520Z,89.24
2024-03-22T16:35:30.357Z,89.54
2024-03-22T16:40:36.037Z,90.36
2024-03-22T16:45:41.804Z,90.50
2024-03-22T16:50:48.015Z,91.98
2024-03-22T16:55:53.680Z,92.64
2024-03-22T17:01:10.083Z,93.50
2024-03-22T17:06:21.504Z,94.59
2024-03-22T17:11:23.440Z,94.92
2024-03-22T17:16:29.108Z,96.50
2024-03-22T17:21:34.779Z,97.27
2024-03-22T17:26:43.619Z,97.88
2024-03-22T17:31:49.439Z,99.01
2024-03-22T17:36:56.292Z,100.00
2024-03-22T17:42:04.329Z,100.00
2024-03-22T17:47:10.191Z,100.00
2024-03-22T17:52:17.067Z,100.00
2024-03-22T17:57:25.792Z,100.00
2024-03-22T18:02:31.884Z,100.00
2024-03-22T18:07:37.708Z,100.00
2024-03-22T18:12:43.381Z,100.00
2024-03-22T18:17:49.372Z,100.00
2024-03-22T18:22:56.497Z,100.00
2024-03-22T18:28:02.483Z,100.00
2024-03-22T18:33:08.276Z,100.00
2024-03-22T18:38:14.837Z,100.00
2024-03-22T18:43:20.604Z,100.00
2024-03-22T18:48:26.813Z,100.00
2024-03-22T18:53:32.450Z,100.00
2024-03-22T18:58:38.216Z,100.00
2024-03-22T19:03:44.005Z,100.00
2024-03-22T19:08:49.764Z,100.00
2024-03-22T19:13:55.835Z,100.00
2024-03-22T19:19:01.617Z,100.00
2024-03-22T19:24:07.906Z,100.00
2024-03-22T19:29:15.491Z,100.00
2024-03-22T19:34:21.275Z,100.00
2024-03-22T19:39:27.247Z,100.00
2024-03-22T19:44:33.429Z,100.00
2024-03-22T19:49:39.195Z,100.00
2024-03-22T19:54:44.969Z,100.00
2024-03-22T19:59:52.207Z,100.00
2024-03-22T20:04:58.064Z,100.00
2024-03-22T20:10:04.608Z,100.00
2024-03-22T20:15:11.896Z,100.00
2024-03-22T20:20:18.048Z,100.00
2024-03-22T20:25:24.808Z,100.00
2024-03-22T20:30:32.005Z,100.00
2024-03-22T20:35:37.619Z,100.00
2024-03-22T20:40:44.017Z,100.00
2024-03-22T20:45:50.339Z,100.00
2024-03-22T20:50:56.725Z,100.00
2024-03-22T20:56:03.201Z,100.00
2024-03-22T21:01:10.006Z,100.00
2024-03-22T21:06:16.430Z,100.00
2024-03-22T21:11:22.876Z,100.00
2024-03-22T21:16:29.251Z,100.00
2024-03-22T21:21:35.667Z,100.00
2024-03-22T21:26:42.202Z,100.00
2024-03-22T21:31:48.713Z,100.00
2024-03-22T21:36:56.738Z,100.00
2024-03-22T21:42:03.087Z,100.00
2024-03-22T21:47:09.713Z,100.00
2024-03-22T21:52:16.313Z,100.00
2024-03-22T21:57:22.751Z,100.00
2024-03-22T22:02:29.091Z,100.00
2024-03-22T22:07:35.553Z,100.00
2024-03-22T22:12:43.087Z,100.00
2024-03-22T22:17:51.093Z,100.00
2024-03-22T22:22:57.485Z,100.00
2024-03-22T22:28:03.994Z,100.00
2024-03-22T22:33:11.874Z,100.00
2024-03-22T22:38:18.253Z,100.00
2024-03-22T22:43:24.658Z,100.00
2024-03-22T22:48:31.136Z,100.00
2024-03-22T22:53:37.506Z,100.00
2024-03-22T22:58:43.994Z,100.00
2024-03-22T23:03:50.388Z,100.00
2024-03-22T23:08:56.765Z,100.00
2024-03-22T23:14:02.947Z,100.00
2024-03-22T23:19:09.326Z,100.00
2024-03-22T23:24:15.736Z,100.00
2024-03-22T23:29:22.912Z,100.00
2024-03-22T23:34:29.352Z,100.00
2024-03-22T23:39:35.894Z,100.00
2024-03-22T23:44:42.272Z,100.00
2024-03-22T23:49:48.655Z,100.00
2024-03-22T23:54:56.831Z,100.00
